Terminal Aerodrome Forecast
Issued by NWS

Home | Current Version | Previous Version | Text Only | Print | Product List | Glossary On
Versions: 1 2 3 4 5 6 7 8 9 10 11 12 13 14 15 16 17 18 19 20 21 22
000
FTUS43 KAPX 171135
TAFMBL
TAF
KMBL 171135Z 1712/1812 11005KT P6SM BKN024
     FM171600 12006KT P6SM BKN020
     FM172100 13004KT P6SM BKN015
     FM180000 VRB03KT P6SM VCSH OVC015
     FM180600 00000KT P6SM OVC015
     FM181000 VRB03KT 4SM BR OVC015=

USA.gov is the U.S. government's official web portal to all federal, state and local government web resources and services.